Portada
METAR-TAF:

METAR-TAF

Aeroports :

Antananarivo, Madagascar

latitud: 18-48S, longitud: 047-29E, altitud: 1279 m

Observació

L'informe es va fer fa 10 minuts, a les 08:30 UTC
Vent 10 kt del Est
Temperatura 27°C
Humitat 42%
Pressió 1021 hPa
Visibilitat 10 km o més
sense núvols per sota de 1500 mi sense presència de cumulonimbus.

METAR: FMMI 230830Z 10010KT CAVOK 27/13 Q1021 NOSIG

Hora: 11:40 (08:40 UTC)

Pronòstic

L'informe es va fer fa 3 hores i 40 minuts, a les 05:00 UTC
Pronòstic vàlid del 23 a les 06 UTC al 24 a les 12 UTC
Vent 8 kt del Sud-Est
Visibilitat 10 km o més
Escasses núvols a una alçada de 2000 ft
Evolucionant progressivament
l' 23 a les 10 UTC al 23 a les 12 UTC
Núvols disperses a una alçada de 2000 ft, Cumulonimbus.
Evolucionant progressivament
l' 23 a les 15 UTC al 23 a les 18 UTC
Escasses núvols a una alçada de 700 ft
Cel ennuvolat a una alçada de 2000 ft

TAF: FMMI 230500Z 2306/2412 14008KT 9999 FEW020 BECMG 2310/2312 SCT020CB BECMG 2315/2318 FEW007 BKN020

Observacions i pronòstics meteorològics de més de 4000 aeroports (METAR i TAF).

Les estacions disponibles són els punts grocs i vermells al mapa.

Posi el ratolí al punt desitjat per veure el nom de l'estació.

Feu clic per veure les observacions i els pronòstics meteorològics.

Per canviar el mapa: feu clic els botons verds amb una creu de color negre per apropar; al botó verd amb un guió per allunyar la imatge; o en les fletxes verdes per a mapes adjacents.


METAR-TAF: